Time;durP1;ratioP1;P1;durP2;ratioP2;P2;SDS_P1;SDS_P2;PMS_P1;PMS_P2;Temp;Humidity;BMP_temperature;BMP_pressure;BME280_temperature;BME280_humidity;BME280_pressure;Samples;Min_cycle;Max_cycle;Signal;HPM_P1;HPM_P2
2022/12/24 00:09:19;;;;;;;639.67;37.15;;;1.30;99.90;;;;;;20181732;29;20045;-60
2022/12/24 00:19:20;;;;;;;500.17;31.83;;;1.40;99.90;;;;;;20182525;29;20053;-59
2022/12/24 00:29:22;;;;;;;323.95;28.42;;;1.60;99.90;;;;;;20194863;29;20049;-60
2022/12/24 00:39:24;;;;;;;221.57;22.90;;;1.70;99.90;;;;;;20177863;29;20049;-59
2022/12/24 00:49:25;;;;;;;213.68;19.15;;;1.70;99.90;;;;;;20194632;29;20033;-59
2022/12/24 00:59:27;;;;;;;16.83;7.07;;;1.60;99.90;;;;;;20190221;29;20048;-59
2022/12/24 01:09:29;;;;;;;24.80;8.02;;;1.30;99.90;;;;;;20192949;29;20052;-60
2022/12/24 01:19:30;;;;;;;5.95;3.03;;;1.90;99.90;;;;;;20191167;29;20044;-60
2022/12/24 01:29:32;;;;;;;6.82;2.78;;;1.70;99.90;;;;;;20192073;29;20045;-60
2022/12/24 01:39:34;;;;;;;3.70;2.05;;;2.10;99.90;;;;;;20190675;29;20480;-60
2022/12/24 01:49:39;;;;;;;3.08;1.08;;;2.10;99.90;;;;;;20190011;29;20040;-60
2022/12/24 01:59:45;;;;;;;9.13;3.92;;;2.10;99.90;;;;;;20189479;29;20103;-60
2022/12/24 02:09:48;;;;;;;6.90;3.35;;;2.20;99.90;;;;;;20188322;29;20113;-60
2022/12/24 02:20:07;;;;;;;9.50;5.47;;;2.10;99.90;;;;;;20152925;29;20568;-60
2022/12/24 02:30:18;;;;;;;1.17;0.55;;;2.00;99.90;;;;;;20171595;29;20109;-60
2022/12/24 02:40:33;;;;;;;1.98;0.40;;;2.60;99.90;;;;;;20166818;29;20109;-60
2022/12/24 02:50:35;;;;;;;0.35;0.20;;;2.90;99.90;;;;;;20185416;29;20811;-60
2022/12/24 03:01:15;;;;;;;0.50;0.20;;;3.40;99.90;;;;;;20168676;29;20116;-60
2022/12/24 03:11:17;;;;;;;0.20;0.10;;;4.10;99.90;;;;;;20167911;29;20060;-62
2022/12/24 03:21:27;;;;;;;0.10;0.00;;;4.30;99.90;;;;;;20182785;29;20105;-63
2022/12/24 03:31:40;;;;;;;2.13;1.10;;;4.70;99.90;;;;;;20149210;29;20049;-63
2022/12/24 03:41:44;;;;;;;3.58;2.00;;;4.70;99.90;;;;;;20183364;29;20057;-63
2022/12/24 03:51:46;;;;;;;0.75;0.40;;;3.80;99.90;;;;;;20182937;29;20045;-63
2022/12/24 04:01:48;;;;;;;0.75;0.47;;;3.40;99.90;;;;;;20178777;29;20444;-63
2022/12/24 04:11:49;;;;;;;1.08;0.20;;;3.30;99.90;;;;;;20180251;29;20509;-63
2022/12/24 04:21:51;;;;;;;1.90;0.08;;;3.10;99.90;;;;;;20195437;29;20056;-63
2022/12/24 04:31:52;;;;;;;1.70;0.80;;;3.10;99.90;;;;;;20179776;29;20041;-63
2022/12/24 04:41:54;;;;;;;1.55;0.80;;;3.00;99.90;;;;;;20195006;29;20049;-63
2022/12/24 04:51:56;;;;;;;0.90;0.45;;;2.90;99.90;;;;;;20194285;29;20048;-63
2022/12/24 05:01:58;;;;;;;1.15;0.50;;;2.90;99.90;;;;;;20193725;29;20037;-63
2022/12/24 05:12:00;;;;;;;1.20;0.60;;;2.70;99.90;;;;;;20191898;29;20045;-63
2022/12/24 05:32:21;;;;;;;3.35;1.88;;;2.40;99.90;;;;;;20191405;29;20049;-63
2022/12/24 05:42:23;;;;;;;2.70;1.77;;;2.20;99.90;;;;;;20190922;29;20052;-63
2022/12/24 05:52:24;;;;;;;4.90;2.40;;;2.00;99.90;;;;;;20190927;29;20070;-63
2022/12/24 06:02:26;;;;;;;3.28;1.98;;;2.10;99.90;;;;;;20189547;29;20045;-63
2022/12/24 06:12:28;;;;;;;0.90;0.40;;;2.30;99.90;;;;;;20187761;29;20093;-63
2022/12/24 06:22:29;;;;;;;0.32;0.17;;;2.60;99.90;;;;;;20186349;29;20048;-63
2022/12/24 06:32:31;;;;;;;1.15;0.70;;;3.40;99.90;;;;;;20186901;29;20106;-63
2022/12/24 06:42:33;;;;;;;0.50;0.20;;;3.30;99.90;;;;;;20170643;29;20053;-63
2022/12/24 06:52:35;;;;;;;0.43;0.10;;;2.80;99.90;;;;;;20185585;29;20352;-63
2022/12/24 07:02:42;;;;;;;0.10;0.10;;;2.50;99.90;;;;;;20168930;29;20140;-63
2022/12/24 07:12:44;;;;;;;1.27;0.20;;;2.80;99.90;;;;;;20167330;29;20607;-63
2022/12/24 07:22:46;;;;;;;0.57;0.20;;;2.90;99.90;;;;;;20183930;29;20479;-63
2022/12/24 07:32:48;;;;;;;0.60;0.20;;;3.00;99.90;;;;;;20198055;29;20053;-62
2022/12/24 07:42:49;;;;;;;1.45;0.10;;;3.20;99.90;;;;;;20209291;29;20587;-63
2022/12/24 07:52:52;;;;;;;0.75;0.40;;;3.50;99.90;;;;;;20208277;29;20048;-63
2022/12/24 08:02:54;;;;;;;0.65;0.20;;;3.90;99.90;;;;;;20208630;29;20044;-62
2022/12/24 08:12:55;;;;;;;1.25;0.50;;;4.60;99.90;;;;;;20207436;29;20550;-62
2022/12/24 08:22:57;;;;;;;0.55;0.28;;;5.60;99.90;;;;;;20208258;29;20041;-61
2022/12/24 08:33:00;;;;;;;0.73;0.30;;;6.30;99.90;;;;;;20190594;29;20057;-57
2022/12/24 08:43:01;;;;;;;1.33;0.60;;;6.40;99.90;;;;;;20184613;29;20449;-59
2022/12/24 08:53:03;;;;;;;1.35;0.73;;;6.90;99.90;;;;;;20194419;29;20041;-60
2022/12/24 09:03:05;;;;;;;1.30;0.70;;;7.00;99.90;;;;;;20194834;29;20052;-57
2022/12/24 09:13:07;;;;;;;3.30;2.10;;;7.30;99.90;;;;;;20175433;29;20101;-58
2022/12/24 09:23:09;;;;;;;4.78;2.70;;;7.90;99.90;;;;;;20191326;29;20097;-58
2022/12/24 09:33:11;;;;;;;1.20;0.82;;;7.80;99.90;;;;;;20188003;29;20056;-59
2022/12/24 09:43:24;;;;;;;2.15;1.60;;;8.00;99.90;;;;;;20174154;29;20571;-60
2022/12/24 09:53:41;;;;;;;3.53;2.30;;;8.50;99.90;;;;;;20186019;29;20049;-57
2022/12/24 10:03:43;;;;;;;4.30;1.77;;;8.80;99.90;;;;;;20189469;29;20041;-56
2022/12/24 10:14:07;;;;;;;2.13;1.40;;;9.30;99.90;;;;;;20170611;29;20037;-56
2022/12/24 10:24:19;;;;;;;7.93;5.28;;;9.80;99.90;;;;;;20187617;29;20037;-62
2022/12/24 10:34:23;;;;;;;6.57;3.38;;;10.70;99.90;;;;;;20170125;29;20422;-57
2022/12/24 10:44:31;;;;;;;2.10;1.52;;;10.80;99.90;;;;;;20186329;29;20564;-56
2022/12/24 10:54:38;;;;;;;4.28;3.30;;;11.10;99.90;;;;;;20181732;29;20049;-56
2022/12/24 11:04:46;;;;;;;5.30;3.00;;;11.20;99.90;;;;;;20184541;29;20041;-57
2022/12/24 11:15:00;;;;;;;4.68;2.60;;;11.30;99.90;;;;;;20184247;29;20052;-59
2022/12/24 11:25:26;;;;;;;1.80;1.20;;;11.70;99.90;;;;;;20183658;29;20089;-59
2022/12/24 11:35:31;;;;;;;5.25;3.78;;;12.10;99.90;;;;;;20181425;29;20045;-60
2022/12/24 11:45:33;;;;;;;4.30;2.53;;;12.50;99.90;;;;;;20183613;29;20053;-59
2022/12/24 11:55:56;;;;;;;2.90;2.00;;;11.80;99.90;;;;;;20182908;29;20078;-58
2022/12/24 12:06:00;;;;;;;2.28;1.65;;;11.80;99.90;;;;;;20183933;29;20384;-59
2022/12/24 12:16:59;;;;;;;4.97;3.42;;;11.80;99.90;;;;;;20184635;29;20109;-59
2022/12/24 12:27:24;;;;;;;3.33;2.58;;;12.10;99.90;;;;;;20196004;29;20109;-61
2022/12/24 12:37:37;;;;;;;2.75;1.80;;;11.80;99.90;;;;;;20195492;29;20053;-62
2022/12/24 12:48:03;;;;;;;8.77;7.03;;;11.60;99.90;;;;;;20195108;29;20124;-60
2022/12/24 12:58:46;;;;;;;4.70;3.70;;;11.30;99.90;;;;;;20176876;29;20041;-59
2022/12/24 13:09:06;;;;;;;9.55;5.97;;;10.70;99.90;;;;;;20191564;29;20070;-60
2022/12/24 13:19:32;;;;;;;3.97;2.70;;;10.30;99.90;;;;;;20174074;29;20033;-60
2022/12/24 13:29:35;;;;;;;10.05;5.32;;;9.40;99.90;;;;;;20174661;29;20049;-61
2022/12/24 13:40:02;;;;;;;5.95;4.15;;;9.40;99.90;;;;;;20190629;29;20041;-60
2022/12/24 13:50:28;;;;;;;4.15;3.10;;;9.60;99.90;;;;;;20190839;29;20128;-60
2022/12/24 14:00:32;;;;;;;12.30;8.32;;;9.30;99.90;;;;;;20185885;29;20041;-60
2022/12/24 14:11:08;;;;;;;10.40;7.63;;;8.80;99.90;;;;;;20188589;29;20037;-60
2022/12/24 14:21:22;;;;;;;9.07;4.35;;;8.30;99.90;;;;;;20164332;29;20570;-60
2022/12/24 14:31:24;;;;;;;0.50;0.40;;;8.20;99.90;;;;;;20187133;29;20060;-63
2022/12/24 14:41:59;;;;;;;0.50;0.30;;;8.30;99.90;;;;;;20186002;29;20067;-63
2022/12/24 14:52:04;;;;;;;9.07;5.88;;;8.70;99.90;;;;;;20185758;29;20430;-62
2022/12/24 15:02:48;;;;;;;7.18;2.75;;;8.00;99.90;;;;;;20169029;29;20053;-63
2022/12/24 15:12:51;;;;;;;2.25;1.20;;;7.20;99.90;;;;;;20180247;29;20098;-61
2022/12/24 15:22:55;;;;;;;1.65;0.20;;;6.70;99.90;;;;;;20183970;29;20045;-63
2022/12/24 15:32:57;;;;;;;0.20;0.10;;;6.20;99.90;;;;;;20184088;29;20460;-63
2022/12/24 15:42:59;;;;;;;0.30;0.10;;;6.00;99.90;;;;;;20166917;29;20057;-63
2022/12/24 15:53:27;;;;;;;1.88;0.10;;;5.80;99.90;;;;;;20191104;29;20052;-63
2022/12/24 16:03:29;;;;;;;0.13;0.08;;;6.00;99.90;;;;;;20195779;29;20106;-63
2022/12/24 16:13:42;;;;;;;0.30;0.10;;;6.40;99.90;;;;;;20180379;29;20109;-63
2022/12/24 16:23:49;;;;;;;0.10;0.10;;;6.80;99.90;;;;;;20196169;29;20052;-62
2022/12/24 16:33:53;;;;;;;0.13;0.00;;;7.00;99.90;;;;;;20175874;29;20041;-63
2022/12/24 16:43:55;;;;;;;0.10;0.10;;;6.90;99.90;;;;;;20195126;29;20495;-63
2022/12/24 16:53:56;;;;;;;1.17;0.55;;;6.70;99.90;;;;;;20194872;29;20113;-63
2022/12/24 17:03:58;;;;;;;1.63;0.70;;;5.80;99.90;;;;;;20193372;29;20037;-62
2022/12/24 17:14:00;;;;;;;0.40;0.10;;;5.10;99.90;;;;;;20192280;29;20045;-63
2022/12/24 17:24:02;;;;;;;2.28;0.10;;;4.70;99.90;;;;;;20191975;29;20045;-63
2022/12/24 17:34:04;;;;;;;0.20;0.10;;;4.40;99.90;;;;;;20191690;29;20049;-64
2022/12/24 17:44:07;;;;;;;2.63;1.02;;;4.20;99.90;;;;;;20190876;29;20057;-61
2022/12/24 17:54:10;;;;;;;1.70;0.90;;;3.90;99.90;;;;;;20186883;29;20097;-62
2022/12/24 18:04:11;;;;;;;0.90;0.65;;;3.70;99.90;;;;;;20190158;29;20070;-63
2022/12/24 18:14:14;;;;;;;0.22;0.10;;;3.70;99.90;;;;;;20186601;29;20078;-63
2022/12/24 18:24:16;;;;;;;0.40;0.20;;;3.90;99.90;;;;;;20188084;29;20049;-62
2022/12/24 18:34:18;;;;;;;0.40;0.10;;;4.20;99.90;;;;;;20187436;29;20053;-62
2022/12/24 18:44:20;;;;;;;0.20;0.10;;;4.70;99.90;;;;;;20186784;29;20380;-62
2022/12/24 18:54:22;;;;;;;0.30;0.00;;;4.70;99.90;;;;;;20184666;29;20109;-61
2022/12/24 19:04:24;;;;;;;0.00;0.00;;;4.60;99.90;;;;;;20169036;29;20456;-62
2022/12/24 19:14:26;;;;;;;0.15;0.10;;;4.70;99.90;;;;;;20183878;29;20044;-62
2022/12/24 19:24:28;;;;;;;1.35;0.00;;;4.70;99.90;;;;;;20183589;29;20037;-63
2022/12/24 19:34:30;;;;;;;0.10;0.00;;;4.30;99.90;;;;;;20183979;29;20037;-59
2022/12/24 19:44:32;;;;;;;0.30;0.00;;;4.40;99.90;;;;;;20183686;29;20578;-63
2022/12/24 19:54:34;;;;;;;0.20;0.00;;;4.10;99.90;;;;;;20183386;29;20045;-62
2022/12/24 20:04:36;;;;;;;0.10;0.00;;;4.20;99.90;;;;;;20182728;29;20048;-62
2022/12/24 20:14:38;;;;;;;0.00;0.00;;;4.20;99.90;;;;;;20182852;29;20045;-63
2022/12/24 20:24:39;;;;;;;0.00;0.00;;;4.50;99.90;;;;;;20164606;29;20102;-63
2022/12/24 20:34:41;;;;;;;0.10;0.10;;;4.60;99.90;;;;;;20181655;29;20049;-62
2022/12/24 20:44:43;;;;;;;0.00;0.00;;;4.10;99.90;;;;;;20194395;29;20378;-62
2022/12/24 20:54:45;;;;;;;0.00;0.00;;;3.70;99.90;;;;;;20194627;29;20056;-64
2022/12/24 21:04:47;;;;;;;0.30;0.10;;;3.70;99.90;;;;;;20193852;29;20049;-62
2022/12/24 21:14:49;;;;;;;0.30;0.10;;;3.50;99.90;;;;;;20176248;29;20097;-63
2022/12/24 21:24:50;;;;;;;0.38;0.00;;;3.00;99.90;;;;;;20191586;29;20045;-63
2022/12/24 21:34:52;;;;;;;0.57;0.10;;;3.00;99.90;;;;;;20175015;29;20118;-64
2022/12/24 21:44:54;;;;;;;0.10;0.00;;;3.10;99.90;;;;;;20191357;29;20041;-62
2022/12/24 21:54:56;;;;;;;0.08;0.00;;;3.00;99.90;;;;;;20190017;29;20044;-63
2022/12/24 22:04:58;;;;;;;0.10;0.00;;;3.00;99.90;;;;;;20189448;29;20384;-63
2022/12/24 22:15:01;;;;;;;0.00;0.00;;;3.30;99.90;;;;;;20188579;29;20049;-62
2022/12/24 22:25:03;;;;;;;0.40;0.20;;;3.20;99.90;;;;;;20172121;29;20041;-62
2022/12/24 22:35:05;;;;;;;0.47;0.00;;;3.00;99.90;;;;;;20166948;29;20705;-62
2022/12/24 22:45:07;;;;;;;0.80;0.10;;;2.70;99.90;;;;;;20186826;29;20096;-62
2022/12/24 22:55:09;;;;;;;0.00;0.00;;;2.70;99.90;;;;;;20185926;29;20560;-63
2022/12/24 23:05:13;;;;;;;0.03;0.00;;;2.80;99.90;;;;;;20184821;29;20049;-61
2022/12/24 23:15:15;;;;;;;0.13;0.00;;;2.60;99.90;;;;;;20184872;29;20049;-62
2022/12/24 23:25:17;;;;;;;0.32;0.20;;;2.50;99.90;;;;;;20167102;29;20424;-62
2022/12/24 23:35:18;;;;;;;0.63;0.10;;;2.40;99.90;;;;;;20183701;29;20049;-62
2022/12/24 23:45:20;;;;;;;0.28;0.10;;;2.30;99.90;;;;;;20183918;29;20105;-62
2022/12/24 23:55:22;;;;;;;0.00;0.00;;;2.20;99.90;;;;;;20183360;29;20122;-62
